Time;durP1;ratioP1;P1;durP2;ratioP2;P2;SDS_P1;SDS_P2;PMS_P1;PMS_P2;Temp;Humidity;BMP_temperature;BMP_pressure;BME280_temperature;BME280_humidity;BME280_pressure;Samples;Min_cycle;Max_cycle;Signal;HPM_P1;HPM_P2
2022/10/31 00:02:39;;;;;;;38.33;25.50;;;12.80;99.90;;;;;;9997046;29;20268;-91
2022/10/31 00:07:42;;;;;;;31.93;25.53;;;12.70;99.90;;;;;;9995732;29;20254;-91
2022/10/31 00:12:44;;;;;;;34.27;25.73;;;12.70;99.90;;;;;;10006165;29;20246;-90
2022/10/31 00:17:47;;;;;;;33.37;26.27;;;13.30;99.90;;;;;;9997996;29;20319;-90
2022/10/31 00:22:49;;;;;;;33.60;26.67;;;13.00;99.90;;;;;;10005131;29;20297;-91
2022/10/31 00:27:52;;;;;;;31.80;25.47;;;13.30;99.90;;;;;;10000230;29;20250;-90
2022/10/31 00:32:55;;;;;;;36.77;26.40;;;13.50;99.90;;;;;;9989532;29;20256;-91
2022/10/31 00:37:58;;;;;;;36.90;26.67;;;13.40;99.90;;;;;;9985191;29;20268;-91
2022/10/31 00:43:00;;;;;;;37.23;26.00;;;13.10;99.90;;;;;;9977996;29;20655;-90
2022/10/31 00:48:04;;;;;;;46.67;27.93;;;13.40;99.90;;;;;;9998151;29;20310;-90
2022/10/31 00:53:07;;;;;;;31.60;23.40;;;13.50;99.90;;;;;;10003023;29;20686;-91
2022/10/31 00:58:10;;;;;;;30.40;23.10;;;13.30;99.90;;;;;;9984476;29;20313;-90
2022/10/31 01:03:14;;;;;;;32.03;23.07;;;13.20;99.90;;;;;;9990360;29;20284;-91
2022/10/31 01:08:16;;;;;;;30.57;23.10;;;13.00;99.90;;;;;;9977735;29;20273;-90
2022/10/31 01:13:19;;;;;;;31.10;24.87;;;13.40;99.90;;;;;;9994232;29;20250;-90
2022/10/31 01:18:25;;;;;;;32.63;23.83;;;13.40;99.90;;;;;;10003497;29;20645;-90
2022/10/31 01:23:28;;;;;;;29.13;23.47;;;13.40;99.90;;;;;;9968673;29;20760;-90
2022/10/31 01:28:30;;;;;;;37.10;25.17;;;13.60;99.90;;;;;;9993521;29;20275;-91
2022/10/31 01:33:34;;;;;;;42.60;27.57;;;13.40;99.90;;;;;;9985354;29;20249;-91
2022/10/31 01:38:36;;;;;;;45.53;30.53;;;13.20;99.90;;;;;;9996062;29;20331;-90
2022/10/31 01:43:49;;;;;;;42.73;29.70;;;12.90;99.90;;;;;;9972871;29;20319;-91
2022/10/31 01:48:53;;;;;;;42.07;27.97;;;12.80;99.90;;;;;;9977527;29;20349;-90
2022/10/31 01:54:00;;;;;;;42.63;28.77;;;13.00;99.90;;;;;;9985452;29;20303;-91
2022/10/31 01:59:07;;;;;;;40.57;27.80;;;12.90;99.90;;;;;;9979627;29;20264;-91
2022/10/31 02:04:10;;;;;;;32.70;25.43;;;12.10;99.90;;;;;;9969519;29;20230;-91
2022/10/31 02:09:14;;;;;;;32.60;25.73;;;12.40;99.90;;;;;;9998963;29;20243;-90
2022/10/31 02:14:17;;;;;;;36.13;25.23;;;12.50;99.90;;;;;;9966455;29;20267;-90
2022/10/31 02:19:45;;;;;;;32.20;24.70;;;12.30;99.90;;;;;;9973189;29;20713;-91
2022/10/31 02:25:03;;;;;;;31.77;24.67;;;12.50;99.90;;;;;;9966744;29;20237;-91
2022/10/31 02:30:26;;;;;;;33.63;25.30;;;13.00;99.90;;;;;;9977087;29;20246;-90
2022/10/31 02:35:47;;;;;;;31.10;23.43;;;12.60;99.90;;;;;;9982748;29;20309;-91
2022/10/31 02:41:12;;;;;;;26.20;23.03;;;12.70;99.90;;;;;;9960209;29;20270;-90
2022/10/31 02:46:32;;;;;;;30.47;24.63;;;12.00;99.90;;;;;;9946579;29;20249;-91
2022/10/31 02:51:36;;;;;;;30.23;24.20;;;13.10;99.90;;;;;;9959455;29;20321;-90
2022/10/31 02:56:39;;;;;;;31.30;24.47;;;12.90;99.90;;;;;;9989358;29;21066;-91
2022/10/31 03:02:19;;;;;;;33.03;25.37;;;12.30;99.90;;;;;;9995448;29;20247;-90
2022/10/31 03:07:30;;;;;;;28.97;22.50;;;12.50;99.90;;;;;;9943737;29;20271;-91
2022/10/31 03:12:42;;;;;;;32.43;24.17;;;12.50;99.90;;;;;;9979980;29;20249;-90
2022/10/31 03:18:04;;;;;;;30.70;23.50;;;12.40;99.90;;;;;;9985071;29;20246;-90
2022/10/31 03:23:11;;;;;;;30.30;24.10;;;12.50;99.90;;;;;;9996833;29;20246;-90
2022/10/31 03:28:18;;;;;;;31.13;23.60;;;12.60;99.90;;;;;;10006703;29;20276;-91
2022/10/31 03:33:30;;;;;;;34.10;23.73;;;12.20;99.90;;;;;;9986358;29;20250;-91
2022/10/31 03:38:35;;;;;;;27.80;22.20;;;12.50;99.90;;;;;;9984168;29;20255;-90
2022/10/31 03:43:44;;;;;;;32.83;23.83;;;12.30;99.90;;;;;;9992248;29;20322;-91
2022/10/31 03:48:47;;;;;;;24.20;20.77;;;12.20;99.90;;;;;;9990882;29;20659;-91
2022/10/31 03:53:50;;;;;;;26.20;21.47;;;13.20;99.90;;;;;;9985844;29;20228;-91
2022/10/31 03:59:00;;;;;;;35.07;23.57;;;13.80;99.90;;;;;;9985237;29;20271;-90
2022/10/31 04:04:05;;;;;;;31.87;24.03;;;13.90;99.90;;;;;;9994660;29;20680;-90
2022/10/31 04:09:09;;;;;;;29.57;23.37;;;13.40;99.90;;;;;;9974779;29;20810;-90
2022/10/31 04:14:12;;;;;;;30.13;22.57;;;13.50;99.90;;;;;;9990570;29;20816;-90
2022/10/31 04:19:15;;;;;;;25.00;21.03;;;13.40;99.90;;;;;;9992967;29;20261;-90
2022/10/31 04:24:17;;;;;;;23.07;20.77;;;13.30;99.90;;;;;;9984742;29;20266;-91
2022/10/31 04:29:20;;;;;;;22.67;20.00;;;12.70;99.90;;;;;;9979516;29;20302;-90
2022/10/31 04:34:22;;;;;;;25.50;20.63;;;12.70;99.90;;;;;;9983371;29;20245;-91
2022/10/31 04:39:25;;;;;;;23.23;20.37;;;12.10;99.90;;;;;;9976625;29;20264;-91
2022/10/31 04:44:54;;;;;;;26.40;20.57;;;11.00;99.90;;;;;;9982887;29;20257;-90
2022/10/31 04:49:57;;;;;;;26.30;20.43;;;11.80;99.90;;;;;;9977026;29;20291;-90
2022/10/31 04:55:00;;;;;;;23.87;20.43;;;12.10;99.90;;;;;;9982061;29;20246;-90
2022/10/31 05:00:22;;;;;;;29.33;21.83;;;11.90;99.90;;;;;;9994709;29;20263;-91
2022/10/31 05:05:28;;;;;;;29.07;25.67;;;12.00;99.90;;;;;;9974448;29;20295;-91
2022/10/31 05:10:31;;;;;;;25.27;21.73;;;11.80;99.90;;;;;;9975448;29;20300;-90
2022/10/31 05:15:35;;;;;;;27.57;23.53;;;12.70;99.90;;;;;;9968414;29;20688;-90
2022/10/31 05:21:01;;;;;;;27.63;23.33;;;12.60;99.90;;;;;;9872131;30;20313;-89
2022/10/31 05:26:09;;;;;;;25.40;21.67;;;12.70;99.90;;;;;;9862966;30;20286;-91
2022/10/31 05:31:12;;;;;;;25.27;21.07;;;12.50;99.90;;;;;;9866997;29;20313;-90
2022/10/31 05:36:16;;;;;;;22.93;19.97;;;12.20;99.90;;;;;;9863279;29;20249;-90
2022/10/31 05:41:37;;;;;;;22.13;19.40;;;12.10;99.90;;;;;;9864786;29;20313;-90
2022/10/31 05:46:47;;;;;;;27.23;22.27;;;11.40;99.90;;;;;;9874204;30;20252;-90
2022/10/31 05:52:10;;;;;;;23.70;19.77;;;11.20;99.90;;;;;;9878475;29;20955;-90
2022/10/31 05:57:33;;;;;;;25.37;20.70;;;12.20;99.90;;;;;;9944808;29;20307;-90
2022/10/31 06:02:37;;;;;;;25.80;20.80;;;12.50;99.90;;;;;;9963527;29;20674;-90
2022/10/31 06:07:55;;;;;;;23.13;20.23;;;12.40;99.90;;;;;;9978585;29;20322;-91
2022/10/31 06:12:58;;;;;;;25.70;20.77;;;12.10;99.90;;;;;;9982344;29;20254;-90
2022/10/31 06:18:10;;;;;;;24.07;20.30;;;11.90;99.90;;;;;;9980541;29;20276;-90
2022/10/31 06:23:22;;;;;;;21.37;19.07;;;12.70;99.90;;;;;;9968456;29;20236;-91
2022/10/31 06:28:30;;;;;;;22.43;18.33;;;12.80;99.90;;;;;;9971283;29;20255;-90
2022/10/31 06:33:45;;;;;;;23.27;18.27;;;13.80;99.90;;;;;;9986136;29;20371;-90
2022/10/31 06:38:48;;;;;;;23.23;18.83;;;13.60;99.90;;;;;;9977416;29;20276;-90
2022/10/31 06:43:54;;;;;;;23.20;18.97;;;13.40;99.90;;;;;;9981676;29;20266;-90
2022/10/31 06:49:15;;;;;;;23.97;19.03;;;12.90;99.90;;;;;;9989449;29;20696;-90
2022/10/31 06:54:25;;;;;;;26.97;21.23;;;12.60;99.90;;;;;;9999129;29;20244;-90
2022/10/31 06:59:29;;;;;;;31.70;22.60;;;12.80;99.90;;;;;;9966394;29;20276;-91
2022/10/31 07:04:50;;;;;;;24.03;19.87;;;12.50;99.90;;;;;;9984590;29;20290;-90
2022/10/31 07:09:53;;;;;;;36.77;24.07;;;12.90;99.90;;;;;;9976487;29;20239;-90
2022/10/31 07:15:10;;;;;;;31.77;21.60;;;13.10;99.90;;;;;;9967339;29;20250;-91
2022/10/31 07:20:13;;;;;;;41.43;29.53;;;13.30;99.90;;;;;;9972879;29;20274;-91
2022/10/31 07:25:16;;;;;;;32.37;22.87;;;13.70;99.90;;;;;;9978258;29;20256;-91
2022/10/31 07:30:38;;;;;;;47.00;32.80;;;14.60;99.90;;;;;;9992669;29;20258;-90
2022/10/31 07:35:40;;;;;;;30.63;22.77;;;14.40;99.90;;;;;;9977674;29;20303;-89
2022/10/31 07:40:51;;;;;;;32.67;24.50;;;14.30;99.90;;;;;;9975421;29;20278;-90
2022/10/31 07:45:54;;;;;;;39.70;29.00;;;15.00;99.90;;;;;;9974556;29;20323;-90
2022/10/31 07:51:15;;;;;;;38.33;27.17;;;14.40;99.90;;;;;;9994231;29;20247;-91
2022/10/31 07:56:49;;;;;;;53.07;33.10;;;14.60;99.90;;;;;;9974186;29;20322;-90
2022/10/31 08:01:51;;;;;;;84.90;53.13;;;14.20;99.90;;;;;;9999275;29;20274;-91
2022/10/31 08:07:19;;;;;;;82.97;43.23;;;10.70;99.90;;;;;;9982350;29;20266;-90
2022/10/31 08:12:29;;;;;;;83.73;43.93;;;10.90;99.90;;;;;;9983545;29;20250;-90
2022/10/31 08:17:35;;;;;;;40.67;29.30;;;10.20;99.90;;;;;;9976067;29;20255;-90
2022/10/31 08:22:39;;;;;;;57.30;32.37;;;13.80;99.90;;;;;;9976110;29;20243;-89
2022/10/31 08:27:50;;;;;;;69.57;39.77;;;14.60;99.90;;;;;;9977104;29;20250;-90
2022/10/31 08:33:00;;;;;;;53.63;34.30;;;13.60;99.90;;;;;;9994699;29;20259;-90
2022/10/31 08:38:21;;;;;;;56.77;35.33;;;14.50;99.90;;;;;;9999809;29;20254;-90
2022/10/31 08:43:24;;;;;;;55.77;35.27;;;15.10;99.90;;;;;;9988826;29;20812;-89
2022/10/31 08:48:29;;;;;;;61.17;39.70;;;15.30;99.90;;;;;;9957833;29;21072;-91
2022/10/31 08:53:32;;;;;;;37.90;26.57;;;15.50;99.90;;;;;;9973089;29;20292;-91
2022/10/31 08:58:57;;;;;;;48.70;28.93;;;15.90;99.90;;;;;;9862776;30;20264;-90
2022/10/31 09:04:12;;;;;;;31.67;22.00;;;16.60;99.90;;;;;;9850228;30;20349;-90
2022/10/31 09:09:15;;;;;;;24.50;18.50;;;17.20;99.90;;;;;;9860809;30;20316;-91
2022/10/31 09:14:17;;;;;;;21.23;17.37;;;17.90;99.90;;;;;;9879318;29;20294;-90
2022/10/31 09:19:49;;;;;;;22.23;18.37;;;18.10;99.90;;;;;;9862884;30;20295;-90
2022/10/31 09:24:51;;;;;;;31.03;21.03;;;18.30;99.90;;;;;;9849170;30;20252;-90
2022/10/31 09:29:54;;;;;;;27.87;21.40;;;18.20;99.90;;;;;;9862285;30;20260;-90
2022/10/31 09:34:57;;;;;;;26.03;19.10;;;18.00;99.90;;;;;;9939078;29;20258;-90
2022/10/31 09:39:59;;;;;;;27.83;20.23;;;17.90;99.90;;;;;;9976094;29;20323;-90
2022/10/31 09:45:21;;;;;;;27.70;19.83;;;18.20;99.90;;;;;;9974297;29;20262;-90
2022/10/31 09:50:49;;;;;;;26.83;18.40;;;17.90;99.90;;;;;;9973924;29;20287;-91
2022/10/31 09:56:18;;;;;;;30.23;22.37;;;18.20;99.90;;;;;;9983533;29;20246;-90
2022/10/31 10:01:49;;;;;;;38.23;25.13;;;17.90;99.90;;;;;;9978105;29;20319;-91
2022/10/31 10:06:52;;;;;;;37.73;25.47;;;17.90;99.90;;;;;;9972456;29;20306;-90
2022/10/31 10:12:53;;;;;;;29.63;21.87;;;17.50;99.90;;;;;;9912739;29;20349;-94
2022/10/31 10:18:19;;;;;;;34.50;24.40;;;17.90;99.90;;;;;;9881885;29;20251;-93
2022/10/31 10:23:29;;;;;;;45.07;30.00;;;17.60;99.90;;;;;;9903491;29;20254;-91
2022/10/31 10:28:38;;;;;;;38.20;24.97;;;15.10;99.90;;;;;;9919627;29;20453;-94
2022/10/31 10:34:03;;;;;;;35.93;22.43;;;14.50;99.90;;;;;;9896928;29;20292;-92
2022/10/31 10:39:23;;;;;;;43.03;24.77;;;16.60;99.90;;;;;;9928997;29;20236;-93
2022/10/31 10:49:52;;;;;;;36.37;22.77;;;17.60;99.90;;;;;;10028668;29;20222;-93
2022/10/31 10:55:20;;;;;;;38.17;25.80;;;17.90;99.90;;;;;;9986183;29;20214;-93
2022/10/31 11:00:29;;;;;;;35.47;23.03;;;18.10;99.90;;;;;;9988493;29;20236;-92
2022/10/31 11:05:45;;;;;;;46.27;28.23;;;17.90;99.90;;;;;;10004910;29;20237;-92
2022/10/31 11:11:03;;;;;;;36.43;24.60;;;17.60;99.90;;;;;;9975601;29;20210;-93
2022/10/31 11:16:14;;;;;;;24.87;20.07;;;17.10;99.90;;;;;;9985387;29;20227;-93
2022/10/31 11:21:35;;;;;;;49.37;30.17;;;17.70;99.90;;;;;;9980718;29;20288;-93
2022/10/31 11:26:39;;;;;;;53.17;34.63;;;17.50;99.90;;;;;;9983774;29;20222;-92
2022/10/31 11:31:42;;;;;;;39.23;27.90;;;17.10;99.90;;;;;;9975365;29;20219;-94
2022/10/31 11:36:45;;;;;;;54.23;33.13;;;17.20;99.90;;;;;;9964909;29;20226;-93
2022/10/31 11:41:50;;;;;;;39.70;30.20;;;17.20;99.90;;;;;;9974706;29;20714;-94
2022/10/31 11:46:55;;;;;;;49.23;30.30;;;17.40;99.90;;;;;;9991494;29;20581;-93
2022/10/31 11:52:07;;;;;;;37.33;22.27;;;17.30;99.90;;;;;;9973274;29;20222;-93
2022/10/31 11:57:42;;;;;;;48.83;28.80;;;17.30;99.90;;;;;;9957845;29;20219;-92
2022/10/31 12:02:45;;;;;;;40.50;24.63;;;17.60;99.90;;;;;;9986859;29;20245;-93
2022/10/31 12:07:48;;;;;;;39.50;26.50;;;17.30;99.90;;;;;;9972683;29;20223;-92
2022/10/31 12:13:32;;;;;;;39.00;23.40;;;17.70;99.90;;;;;;9969377;29;20273;-93
2022/10/31 12:18:43;;;;;;;40.67;25.23;;;17.80;99.90;;;;;;9972191;29;21041;-92
2022/10/31 12:24:06;;;;;;;40.33;23.43;;;18.00;99.90;;;;;;9973710;29;20271;-94
2022/10/31 12:29:30;;;;;;;34.73;19.87;;;18.00;99.90;;;;;;9996536;29;20353;-94
2022/10/31 12:34:51;;;;;;;30.60;21.30;;;18.10;99.90;;;;;;10024720;29;20252;-92
2022/10/31 12:40:06;;;;;;;29.07;19.53;;;18.10;99.90;;;;;;10013993;29;20234;-94
2022/10/31 12:45:18;;;;;;;29.90;18.87;;;18.10;99.90;;;;;;10029330;29;20241;-93
2022/10/31 12:50:39;;;;;;;24.07;17.33;;;18.10;99.90;;;;;;10029242;29;20221;-93
2022/10/31 12:55:44;;;;;;;31.40;20.43;;;18.30;99.90;;;;;;10030160;29;20213;-93
2022/10/31 13:01:08;;;;;;;31.70;20.13;;;18.00;99.90;;;;;;10048309;29;20263;-94
2022/10/31 13:06:18;;;;;;;28.00;20.20;;;18.10;99.90;;;;;;10018309;29;20218;-94
2022/10/31 13:11:33;;;;;;;31.20;20.33;;;18.00;99.90;;;;;;10025956;29;20210;-92
2022/10/31 13:16:41;;;;;;;38.27;21.40;;;18.10;99.90;;;;;;10026890;29;20226;-93
2022/10/31 13:22:02;;;;;;;29.27;19.57;;;17.90;99.90;;;;;;10013021;29;20267;-93
2022/10/31 13:27:17;;;;;;;24.90;17.30;;;18.20;99.90;;;;;;10013969;29;20214;-92
2022/10/31 13:32:20;;;;;;;25.63;18.13;;;18.30;99.90;;;;;;10031146;29;20222;-93
2022/10/31 13:37:47;;;;;;;23.07;16.67;;;18.30;99.90;;;;;;10030481;29;20266;-94
2022/10/31 13:43:10;;;;;;;33.87;23.20;;;18.20;99.90;;;;;;10028743;29;20238;-93
2022/10/31 13:48:15;;;;;;;25.27;18.43;;;17.70;99.90;;;;;;10011614;29;20278;-93
2022/10/31 13:53:18;;;;;;;35.67;23.73;;;17.70;99.90;;;;;;10021037;29;20219;-93
2022/10/31 13:58:27;;;;;;;30.93;22.13;;;17.60;99.90;;;;;;10004458;29;20247;-92
2022/10/31 14:03:32;;;;;;;32.63;20.13;;;17.30;99.90;;;;;;10019762;29;20330;-93
2022/10/31 14:08:55;;;;;;;30.77;22.63;;;17.30;99.90;;;;;;10005004;29;20214;-93
2022/10/31 14:14:00;;;;;;;36.37;21.53;;;17.10;99.90;;;;;;10001359;29;20253;-92
2022/10/31 14:19:07;;;;;;;24.37;15.00;;;17.00;99.90;;;;;;9996320;29;20217;-92
2022/10/31 14:24:25;;;;;;;28.37;18.73;;;17.40;99.90;;;;;;9981145;29;20262;-93
2022/10/31 14:29:33;;;;;;;34.53;22.63;;;17.60;99.90;;;;;;10013460;29;20279;-93
2022/10/31 14:34:40;;;;;;;87.03;22.90;;;17.10;99.90;;;;;;9957147;29;20251;-87
2022/10/31 14:40:05;;;;;;;72.97;20.33;;;18.00;99.90;;;;;;9989451;29;20263;-88
2022/10/31 14:45:29;;;;;;;64.77;20.93;;;18.50;99.90;;;;;;10014416;29;20318;-87
2022/10/31 14:50:48;;;;;;;65.93;22.60;;;18.80;99.90;;;;;;9991091;29;20238;-87
2022/10/31 14:55:53;;;;;;;59.70;26.03;;;18.80;99.90;;;;;;9986628;29;20261;-87
2022/10/31 15:00:57;;;;;;;40.97;23.20;;;18.90;99.90;;;;;;9949530;29;20242;-87
2022/10/31 15:06:05;;;;;;;46.93;24.73;;;18.80;99.90;;;;;;9962266;29;20269;-87
2022/10/31 15:11:14;;;;;;;47.80;24.43;;;18.90;99.90;;;;;;9993542;29;20258;-88
2022/10/31 15:16:31;;;;;;;59.10;25.55;;;18.80;99.90;;;;;;10002395;29;20300;-87
2022/10/31 15:21:47;;;;;;;46.97;26.85;;;18.50;99.90;;;;;;9979521;29;20267;-87
2022/10/31 15:26:52;;;;;;;46.72;25.48;;;18.70;99.90;;;;;;10006190;29;20245;-87
2022/10/31 15:31:56;;;;;;;51.13;27.70;;;18.20;99.90;;;;;;9971944;29;20250;-87
2022/10/31 15:36:59;;;;;;;44.35;27.33;;;18.30;99.90;;;;;;9974091;29;20263;-87
2022/10/31 15:42:02;;;;;;;42.28;27.02;;;18.50;99.90;;;;;;9976055;29;20308;-87
2022/10/31 15:47:17;;;;;;;41.22;25.15;;;18.20;99.90;;;;;;9998031;29;20254;-87
2022/10/31 15:52:32;;;;;;;35.87;22.90;;;18.70;99.90;;;;;;9991593;29;20254;-87
2022/10/31 15:57:41;;;;;;;40.05;24.73;;;18.50;99.90;;;;;;9988497;29;20249;-87
2022/10/31 16:02:44;;;;;;;38.23;24.90;;;17.70;99.90;;;;;;9996869;29;20303;-87
2022/10/31 16:07:51;;;;;;;40.83;24.27;;;17.80;99.90;;;;;;10019003;29;20329;-87
2022/10/31 16:12:54;;;;;;;39.67;23.02;;;18.10;99.90;;;;;;9976807;29;20654;-87
2022/10/31 16:17:56;;;;;;;37.97;21.20;;;18.00;99.90;;;;;;9976000;29;20785;-88
2022/10/31 16:23:03;;;;;;;34.20;22.80;;;17.90;99.90;;;;;;9998262;29;20263;-87
2022/10/31 16:28:23;;;;;;;35.93;21.50;;;17.60;99.90;;;;;;9972743;29;20239;-87
2022/10/31 16:33:37;;;;;;;35.30;22.40;;;17.80;99.90;;;;;;9984568;29;20250;-87
2022/10/31 16:38:40;;;;;;;35.08;20.98;;;17.90;99.90;;;;;;9977574;29;20263;-87
2022/10/31 16:43:43;;;;;;;33.63;22.77;;;17.90;99.90;;;;;;9984825;29;20292;-87
2022/10/31 16:48:52;;;;;;;36.13;23.75;;;17.70;99.90;;;;;;10008053;29;20296;-87
2022/10/31 16:53:54;;;;;;;37.25;22.77;;;18.20;99.90;;;;;;9995841;29;20315;-87
2022/10/31 16:59:01;;;;;;;33.22;21.98;;;17.80;99.90;;;;;;9987600;29;20243;-87
2022/10/31 17:04:04;;;;;;;37.40;23.23;;;18.00;99.90;;;;;;9998187;29;20318;-87
2022/10/31 17:09:06;;;;;;;34.08;22.65;;;18.30;99.90;;;;;;10015336;29;20624;-87
2022/10/31 17:14:09;;;;;;;44.95;26.30;;;18.30;99.90;;;;;;10001716;29;20718;-87
2022/10/31 17:19:13;;;;;;;36.80;25.80;;;18.20;99.90;;;;;;10011060;29;20692;-87
2022/10/31 17:24:15;;;;;;;30.63;20.42;;;18.60;99.90;;;;;;9976903;29;20318;-87
2022/10/31 17:29:18;;;;;;;31.88;22.73;;;18.80;99.90;;;;;;9995737;29;20246;-87
2022/10/31 17:34:20;;;;;;;33.85;23.08;;;18.80;99.90;;;;;;9993368;29;20299;-87
2022/10/31 17:39:23;;;;;;;30.38;22.58;;;18.50;99.90;;;;;;9993153;29;20287;-87
2022/10/31 17:44:25;;;;;;;33.58;23.48;;;18.40;99.90;;;;;;9973009;29;20743;-87
2022/10/31 17:49:28;;;;;;;32.53;22.27;;;18.00;99.90;;;;;;10005572;29;20295;-87
2022/10/31 17:54:30;;;;;;;42.53;26.70;;;18.10;99.90;;;;;;9998511;29;20307;-87
2022/10/31 17:59:33;;;;;;;31.50;22.20;;;15.80;99.90;;;;;;9978674;29;20255;-87
2022/10/31 18:04:36;;;;;;;29.30;21.83;;;17.30;99.90;;;;;;10004374;29;20269;-88
2022/10/31 18:09:38;;;;;;;29.13;22.23;;;18.10;99.90;;;;;;9980671;29;20761;-88
2022/10/31 18:14:41;;;;;;;28.57;20.50;;;18.30;99.90;;;;;;9994299;29;20291;-88
2022/10/31 18:19:49;;;;;;;38.97;29.03;;;18.40;99.90;;;;;;9973067;29;20259;-87
2022/10/31 18:24:52;;;;;;;26.50;19.17;;;18.20;99.90;;;;;;9981589;29;20291;-88
2022/10/31 18:29:56;;;;;;;36.77;24.87;;;18.40;99.90;;;;;;9981947;29;20243;-87
2022/10/31 18:34:59;;;;;;;21.00;17.02;;;18.60;99.90;;;;;;9974256;29;20773;-87
2022/10/31 18:40:02;;;;;;;23.75;18.60;;;19.00;99.90;;;;;;9946488;29;20634;-87
2022/10/31 18:45:05;;;;;;;20.67;17.20;;;18.90;99.90;;;;;;9961363;29;20278;-87
2022/10/31 18:50:27;;;;;;;28.48;17.83;;;18.50;99.90;;;;;;9943683;29;20246;-87
2022/10/31 18:55:30;;;;;;;24.27;17.53;;;18.80;99.90;;;;;;9957635;29;20307;-87
2022/10/31 19:00:32;;;;;;;24.97;18.27;;;18.90;99.90;;;;;;9960977;29;20255;-87
2022/10/31 19:05:35;;;;;;;21.73;19.38;;;18.90;99.90;;;;;;9960310;29;20705;-87
2022/10/31 19:10:38;;;;;;;19.10;16.80;;;18.70;99.90;;;;;;9967123;29;20300;-87
2022/10/31 19:15:41;;;;;;;19.33;16.88;;;19.00;99.90;;;;;;9955436;29;20279;-87
2022/10/31 19:20:44;;;;;;;20.73;17.73;;;19.00;99.90;;;;;;9974876;29;20281;-87
2022/10/31 19:25:46;;;;;;;22.17;17.77;;;18.70;99.90;;;;;;9957431;29;20239;-87
2022/10/31 19:30:53;;;;;;;21.58;16.95;;;18.50;99.90;;;;;;9949909;29;20247;-88
2022/10/31 19:35:59;;;;;;;24.77;19.38;;;18.80;99.90;;;;;;9970977;29;20307;-88
2022/10/31 19:41:09;;;;;;;22.37;18.17;;;18.50;99.90;;;;;;9968308;29;20343;-88
2022/10/31 19:46:13;;;;;;;22.98;17.70;;;18.30;99.90;;;;;;9998133;29;20302;-88
2022/10/31 19:51:29;;;;;;;25.50;18.00;;;17.40;99.90;;;;;;10007490;29;20326;-88
2022/10/31 19:56:31;;;;;;;23.48;19.63;;;17.80;99.90;;;;;;9968653;29;20247;-88
2022/10/31 20:01:34;;;;;;;27.30;17.63;;;17.60;99.90;;;;;;9966513;29;20266;-88
2022/10/31 20:06:39;;;;;;;24.45;18.13;;;18.00;99.90;;;;;;10001219;29;20726;-88
2022/10/31 20:11:44;;;;;;;29.05;19.77;;;18.00;99.90;;;;;;9973564;29;20250;-88
2022/10/31 20:16:47;;;;;;;20.98;16.85;;;17.40;99.90;;;;;;9966366;29;20662;-88
2022/10/31 20:21:49;;;;;;;22.48;18.63;;;18.00;99.90;;;;;;9988619;29;20274;-88
2022/10/31 20:26:51;;;;;;;23.88;18.40;;;18.10;99.90;;;;;;10008357;29;20246;-88
2022/10/31 20:31:55;;;;;;;23.73;19.58;;;18.30;99.90;;;;;;9985906;29;20287;-88
2022/10/31 20:36:58;;;;;;;21.77;17.90;;;17.90;99.90;;;;;;9992830;29;20909;-88
2022/10/31 20:42:01;;;;;;;48.57;24.33;;;;;;;;;;9982811;29;20281;-88
2022/10/31 20:47:05;;;;;;;50.90;28.30;;;12.30;99.90;;;;;;10000770;29;20250;-87
2022/10/31 20:52:07;;;;;;;50.60;28.27;;;11.70;99.90;;;;;;9949148;29;20254;-87
2022/10/31 20:57:10;;;;;;;63.87;31.83;;;11.50;99.90;;;;;;10017194;29;20286;-88
2022/10/31 21:02:12;;;;;;;57.27;32.27;;;11.40;99.90;;;;;;9985723;29;20298;-88
2022/10/31 21:07:15;;;;;;;58.37;30.93;;;11.20;99.90;;;;;;9980002;29;20313;-88
2022/10/31 21:12:18;;;;;;;56.50;30.53;;;11.20;99.90;;;;;;9981486;29;20247;-88
2022/10/31 21:17:20;;;;;;;78.70;33.20;;;11.20;99.90;;;;;;9985811;29;20276;-88
2022/10/31 21:22:23;;;;;;;22.33;17.47;;;11.20;99.90;;;;;;10002116;29;20667;-88
2022/10/31 21:27:25;;;;;;;23.63;17.90;;;14.10;99.90;;;;;;9984570;29;20251;-89
2022/10/31 21:32:28;;;;;;;48.03;22.33;;;14.80;99.90;;;;;;9972082;29;20239;-88
2022/10/31 21:37:30;;;;;;;28.67;19.10;;;14.80;99.90;;;;;;9989261;29;20254;-89
2022/10/31 21:42:33;;;;;;;23.63;16.60;;;15.80;99.90;;;;;;9994998;29;20318;-88
2022/10/31 21:47:35;;;;;;;23.53;17.87;;;16.70;99.90;;;;;;9997793;29;20644;-89
2022/10/31 21:52:38;;;;;;;22.97;17.83;;;16.00;99.90;;;;;;9997483;29;20718;-89
2022/10/31 21:57:40;;;;;;;17.23;13.87;;;16.00;99.90;;;;;;9980916;29;20802;-89
2022/10/31 22:02:43;;;;;;;22.07;16.20;;;16.10;99.90;;;;;;9972785;29;20252;-87
2022/10/31 22:07:45;;;;;;;19.63;16.03;;;16.00;99.90;;;;;;9989083;29;20239;-86
2022/10/31 22:12:48;;;;;;;17.37;14.37;;;16.10;99.90;;;;;;9980733;29;20783;-86
2022/10/31 22:17:50;;;;;;;22.37;17.43;;;16.40;99.90;;;;;;9992114;29;20310;-89
2022/10/31 22:22:53;;;;;;;28.33;19.63;;;16.30;99.90;;;;;;9996768;29;20262;-86
2022/10/31 22:27:55;;;;;;;26.63;19.03;;;15.90;99.90;;;;;;9962306;29;20247;-87
2022/10/31 22:32:58;;;;;;;21.13;17.00;;;15.50;99.90;;;;;;9979911;29;20276;-86
2022/10/31 22:38:00;;;;;;;30.33;19.73;;;15.50;99.90;;;;;;9974774;29;20948;-86
2022/10/31 22:43:03;;;;;;;23.37;16.17;;;15.40;99.90;;;;;;10014058;29;20333;-87
2022/10/31 22:48:06;;;;;;;31.73;20.87;;;15.40;99.90;;;;;;9988775;29;20275;-87
2022/10/31 22:53:10;;;;;;;23.83;18.17;;;16.00;99.90;;;;;;9977486;29;20287;-87
2022/10/31 22:58:12;;;;;;;20.00;14.20;;;16.40;99.90;;;;;;9980591;29;20246;-86
2022/10/31 23:03:17;;;;;;;26.45;19.48;;;16.10;99.90;;;;;;9997249;29;20262;-87
2022/10/31 23:08:20;;;;;;;26.10;18.30;;;15.90;99.90;;;;;;9994871;29;20275;-89
2022/10/31 23:18:44;;;;;;;22.00;17.10;;;15.70;99.90;;;;;;9996281;29;20303;-87
2022/10/31 23:23:51;;;;;;;15.77;13.23;;;16.70;99.90;;;;;;9995835;29;20318;-87
2022/10/31 23:28:54;;;;;;;16.70;13.93;;;16.90;99.90;;;;;;9997734;29;20242;-87
2022/10/31 23:33:56;;;;;;;17.97;14.07;;;16.60;99.90;;;;;;9986565;29;20246;-86
2022/10/31 23:38:59;;;;;;;16.97;15.13;;;17.00;99.90;;;;;;10020134;29;20280;-87
2022/10/31 23:44:01;;;;;;;43.83;23.87;;;16.90;99.90;;;;;;10010286;29;20274;-87
2022/10/31 23:49:04;;;;;;;22.17;15.83;;;14.00;99.90;;;;;;9983299;29;20246;-87
2022/10/31 23:54:07;;;;;;;28.27;17.57;;;12.90;99.90;;;;;;9985608;29;20272;-87
2022/10/31 23:59:09;;;;;;;23.03;15.37;;;15.30;99.90;;;;;;9997578;29;20250;-86
